Time;durP1;ratioP1;P1;durP2;ratioP2;P2;SDS_P1;SDS_P2;PMS_P1;PMS_P2;Temp;Humidity;BMP_temperature;BMP_pressure;BME280_temperature;BME280_humidity;BME280_pressure;Samples;Min_cycle;Max_cycle;Signal;HPM_P1;HPM_P2
2023/10/19 00:00:33;;;;;;;25.67;14.82;;;;;;;;;;4959105;28;20054;-74
2023/10/19 00:03:02;;;;;;;26.23;13.07;;;;;;;;;;4979029;28;20125;-74
2023/10/19 00:05:29;;;;;;;27.00;13.55;;;;;;;;;;4977498;28;20054;-72
2023/10/19 00:07:57;;;;;;;26.88;14.82;;;;;;;;;;4978423;28;20092;-72
2023/10/19 00:10:25;;;;;;;24.08;14.43;;;;;;;;;;4975788;28;20046;-72
2023/10/19 00:12:59;;;;;;;28.13;14.63;;;;;;;;;;4978012;28;20054;-73
2023/10/19 00:15:30;;;;;;;21.90;13.68;;;;;;;;;;4977796;28;20060;-72
2023/10/19 00:17:56;;;;;;;20.33;13.18;;;;;;;;;;4978508;28;21101;-73
2023/10/19 00:20:51;;;;;;;20.35;13.70;;;;;;;;;;4975662;28;20041;-74
2023/10/19 00:23:24;;;;;;;25.63;14.68;;;;;;;;;;4977867;28;20061;-72
2023/10/19 00:25:53;;;;;;;23.27;13.82;;;;;;;;;;4978457;28;20053;-74
2023/10/19 00:28:19;;;;;;;24.88;14.75;;;;;;;;;;4977126;28;20395;-74
2023/10/19 00:30:45;;;;;;;24.88;14.75;;;;;;;;;;4976642;28;20622;-72
2023/10/19 00:33:21;;;;;;;24.50;14.43;;;;;;;;;;4976788;28;20054;-74
2023/10/19 00:36:06;;;;;;;25.10;13.55;;;;;;;;;;4993175;28;20092;-73
2023/10/19 00:41:11;;;;;;;26.48;14.43;;;;;;;;;;4978240;28;20046;-73
2023/10/19 00:43:46;;;;;;;34.90;17.02;;;;;;;;;;4976762;28;20105;-73
2023/10/19 00:48:58;;;;;;;30.67;16.33;;;;;;;;;;4977747;28;20149;-73
2023/10/19 00:53:55;;;;;;;26.10;15.30;;;;;;;;;;4977010;28;20034;-74
2023/10/19 00:56:23;;;;;;;22.92;14.95;;;;;;;;;;4974556;28;20070;-73
2023/10/19 00:58:53;;;;;;;22.30;14.20;;;;;;;;;;4978022;28;20097;-73
2023/10/19 01:01:27;;;;;;;33.95;16.27;;;;;;;;;;4975866;28;20050;-72
2023/10/19 01:03:56;;;;;;;24.55;13.82;;;;;;;;;;4977242;28;20042;-73
2023/10/19 01:06:23;;;;;;;22.67;14.32;;;;;;;;;;4975147;28;20662;-72
2023/10/19 01:08:51;;;;;;;25.05;14.90;;;;;;;;;;4976626;28;20089;-72
2023/10/19 01:11:20;;;;;;;28.30;14.30;;;;;;;;;;4974151;28;20311;-77
2023/10/19 01:13:51;;;;;;;20.13;13.50;;;;;;;;;;4991449;28;20081;-75
2023/10/19 01:16:20;;;;;;;23.05;14.38;;;;;;;;;;4975688;28;20039;-72
2023/10/19 01:18:53;;;;;;;19.10;13.35;;;;;;;;;;4966339;28;20045;-71
2023/10/19 01:21:25;;;;;;;24.17;15.30;;;;;;;;;;4981323;28;20943;-72
2023/10/19 01:23:50;;;;;;;;;;;;;;;;;;4977597;28;20043;-75
2023/10/19 01:26:25;;;;;;;23.23;13.70;;;;;;;;;;4979287;28;19972;-74
2023/10/19 01:29:00;;;;;;;23.77;14.27;;;;;;;;;;4980923;28;20046;-73
2023/10/19 01:33:55;;;;;;;24.83;15.40;;;;;;;;;;4981641;28;20045;-74
2023/10/19 01:36:24;;;;;;;22.80;13.50;;;;;;;;;;4980231;28;20038;-73
2023/10/19 01:38:54;;;;;;;21.88;14.05;;;;;;;;;;4979059;28;20045;-73
2023/10/19 01:41:20;;;;;;;24.58;15.23;;;;;;;;;;4974220;28;20514;-74
2023/10/19 01:43:48;;;;;;;29.70;16.40;;;;;;;;;;4981587;28;20129;-71
2023/10/19 01:46:21;;;;;;;27.80;15.95;;;;;;;;;;4981487;28;20068;-72
2023/10/19 01:48:50;;;;;;;25.65;15.55;;;;;;;;;;4968646;28;20038;-74
2023/10/19 01:51:16;;;;;;;28.25;15.43;;;;;;;;;;4978919;28;20195;-75
2023/10/19 01:53:45;;;;;;;28.15;15.13;;;;;;;;;;4980537;28;20476;-73
2023/10/19 01:56:19;;;;;;;26.42;15.82;;;;;;;;;;4979880;28;20046;-74
2023/10/19 01:58:46;;;;;;;25.20;16.05;;;;;;;;;;4995224;28;20039;-74
2023/10/19 02:03:43;;;;;;;29.42;16.38;;;;;;;;;;4979123;28;20504;-73
2023/10/19 02:06:17;;;;;;;27.90;15.27;;;;;;;;;;4979531;28;20884;-75
2023/10/19 02:08:51;;;;;;;23.17;15.10;;;;;;;;;;4978284;28;20065;-73
2023/10/19 02:11:21;;;;;;;23.20;14.70;;;;;;;;;;4978902;28;20515;-75
2023/10/19 02:13:51;;;;;;;27.48;15.30;;;;;;;;;;4979327;28;20053;-72
2023/10/19 02:16:25;;;;;;;23.05;14.52;;;;;;;;;;4977926;28;20042;-73
2023/10/19 02:18:51;;;;;;;24.60;14.00;;;;;;;;;;4980679;28;20046;-73
2023/10/19 02:21:30;;;;;;;21.95;13.85;;;;;;;;;;4980244;28;20104;-73
2023/10/19 02:23:57;;;;;;;19.80;12.13;;;;;;;;;;4978631;28;20035;-71
2023/10/19 02:26:25;;;;;;;23.30;12.68;;;;;;;;;;4961929;28;20074;-71
2023/10/19 02:28:51;;;;;;;24.08;14.10;;;;;;;;;;4979799;28;20096;-72
2023/10/19 02:31:24;;;;;;;22.85;13.70;;;;;;;;;;4979161;28;20610;-73
2023/10/19 02:34:00;;;;;;;23.65;14.50;;;;;;;;;;4979824;28;20062;-74
2023/10/19 02:36:30;;;;;;;28.70;13.57;;;;;;;;;;4978020;28;20472;-72
2023/10/19 02:38:58;;;;;;;23.15;13.57;;;;;;;;;;4978153;28;20042;-71
2023/10/19 02:41:28;;;;;;;20.55;12.85;;;;;;;;;;4978575;28;20039;-70
2023/10/19 02:46:38;;;;;;;22.90;12.95;;;;;;;;;;4976840;28;20209;-71
2023/10/19 02:49:11;;;;;;;23.20;12.77;;;;;;;;;;4979693;28;20026;-72
2023/10/19 02:51:37;;;;;;;24.38;13.43;;;;;;;;;;4978668;28;20442;-71
2023/10/19 02:54:08;;;;;;;20.02;12.50;;;;;;;;;;4963333;28;20057;-71
2023/10/19 02:56:38;;;;;;;21.27;13.57;;;;;;;;;;4977565;28;20515;-71
2023/10/19 02:59:05;;;;;;;22.00;13.20;;;;;;;;;;4978882;28;20403;-71
2023/10/19 03:01:33;;;;;;;23.50;13.48;;;;;;;;;;4979935;28;20057;-72
2023/10/19 03:04:04;;;;;;;22.70;14.30;;;;;;;;;;4980658;28;20043;-72
2023/10/19 03:06:34;;;;;;;24.98;13.40;;;;;;;;;;4977893;28;20133;-71
2023/10/19 03:09:12;;;;;;;20.35;12.85;;;;;;;;;;4980273;28;20042;-72
2023/10/19 03:11:41;;;;;;;23.73;13.75;;;;;;;;;;4978557;28;20057;-75
2023/10/19 03:14:08;;;;;;;26.77;14.65;;;;;;;;;;4978739;28;20585;-73
2023/10/19 03:16:36;;;;;;;19.98;12.55;;;;;;;;;;4978140;28;20073;-71
2023/10/19 03:19:01;;;;;;;19.40;11.90;;;;;;;;;;4974708;28;20460;-73
2023/10/19 03:21:27;;;;;;;21.55;12.05;;;;;;;;;;4978226;28;20129;-71
2023/10/19 03:24:01;;;;;;;18.48;11.38;;;;;;;;;;4980440;28;20057;-70
2023/10/19 03:26:30;;;;;;;18.30;11.90;;;;;;;;;;4978113;28;20050;-70
2023/10/19 03:29:02;;;;;;;22.20;12.85;;;;;;;;;;4977508;28;20042;-73
2023/10/19 03:31:27;;;;;;;20.25;10.82;;;;;;;;;;4978829;28;20042;-70
2023/10/19 03:34:02;;;;;;;20.25;12.00;;;;;;;;;;4978713;28;20069;-69
2023/10/19 03:36:27;;;;;;;19.17;12.05;;;;;;;;;;4977632;28;20042;-73
2023/10/19 03:38:55;;;;;;;18.48;11.65;;;;;;;;;;4977937;28;20678;-72
2023/10/19 03:41:21;;;;;;;16.73;11.50;;;;;;;;;;4977426;28;20046;-72
2023/10/19 03:43:51;;;;;;;19.77;12.38;;;;;;;;;;4978250;28;20120;-74
2023/10/19 03:46:28;;;;;;;18.55;12.15;;;;;;;;;;4977057;28;20050;-72
2023/10/19 03:48:59;;;;;;;19.05;12.13;;;;;;;;;;4976107;28;20034;-71
2023/10/19 03:51:39;;;;;;;21.02;12.77;;;;;;;;;;4975812;28;20053;-71
2023/10/19 03:54:09;;;;;;;20.70;12.07;;;;;;;;;;4976774;28;20053;-72
2023/10/19 03:56:35;;;;;;;17.52;11.43;;;;;;;;;;4977138;28;20551;-71
2023/10/19 03:59:01;;;;;;;16.33;10.40;;;;;;;;;;4994083;28;20065;-72
2023/10/19 04:01:27;;;;;;;20.10;12.18;;;;;;;;;;4977328;28;20174;-69
2023/10/19 04:03:55;;;;;;;25.60;12.75;;;;;;;;;;4979313;28;20050;-70
2023/10/19 04:06:20;;;;;;;21.33;12.75;;;;;;;;;;4979006;28;20089;-73
2023/10/19 04:08:50;;;;;;;20.15;12.80;;;;;;;;;;4979259;28;20050;-71
2023/10/19 04:11:23;;;;;;;20.75;12.82;;;;;;;;;;4979079;28;20083;-70
2023/10/19 04:13:53;;;;;;;22.55;12.98;;;;;;;;;;4978806;28;20069;-74
2023/10/19 04:16:20;;;;;;;20.02;12.98;;;;;;;;;;4978611;28;20054;-71
2023/10/19 04:18:48;;;;;;;21.08;12.27;;;;;;;;;;4977665;28;20053;-71
2023/10/19 04:21:13;;;;;;;21.02;12.70;;;;;;;;;;4977289;28;20034;-76
2023/10/19 04:23:39;;;;;;;20.70;11.82;;;;;;;;;;4978352;28;20080;-73
2023/10/19 04:26:05;;;;;;;17.48;11.35;;;;;;;;;;4977332;28;20073;-74
2023/10/19 04:28:38;;;;;;;19.67;12.00;;;;;;;;;;4976384;28;20120;-71
2023/10/19 04:31:06;;;;;;;23.08;11.20;;;;;;;;;;4976724;28;20073;-71
2023/10/19 04:33:32;;;;;;;15.38;11.00;;;;;;;;;;4976763;28;20082;-71
2023/10/19 04:36:00;;;;;;;14.18;10.23;;;;;;;;;;4977763;28;20085;-73
2023/10/19 04:38:27;;;;;;;15.13;10.40;;;;;;;;;;4977156;28;20050;-72
2023/10/19 04:40:52;;;;;;;18.25;10.88;;;;;;;;;;4977889;28;20630;-72
2023/10/19 04:43:17;;;;;;;17.88;11.48;;;;;;;;;;4978569;28;20124;-72
2023/10/19 04:45:44;;;;;;;20.13;10.95;;;;;;;;;;4977643;28;20046;-73
2023/10/19 04:48:10;;;;;;;15.95;11.05;;;;;;;;;;4979043;28;21102;-74
2023/10/19 04:50:36;;;;;;;17.67;11.00;;;;;;;;;;4977393;28;20610;-74
2023/10/19 04:53:02;;;;;;;18.42;11.32;;;;;;;;;;4978050;28;20080;-74
2023/10/19 04:55:30;;;;;;;17.95;10.93;;;;;;;;;;4977475;28;20078;-73
2023/10/19 04:57:56;;;;;;;17.77;10.90;;;;;;;;;;4978289;28;20049;-74
2023/10/19 05:00:24;;;;;;;19.08;11.27;;;;;;;;;;4977245;28;20946;-74
2023/10/19 05:02:51;;;;;;;17.15;10.65;;;;;;;;;;4976998;28;20125;-76
2023/10/19 05:05:18;;;;;;;17.85;10.70;;;;;;;;;;4977416;28;20046;-73
2023/10/19 05:07:43;;;;;;;17.27;10.98;;;;;;;;;;4976759;28;20042;-75
2023/10/19 05:10:09;;;;;;;16.42;11.13;;;;;;;;;;4978540;28;20057;-74
2023/10/19 05:12:34;;;;;;;16.48;10.48;;;;;;;;;;4977093;28;20135;-75
2023/10/19 05:15:00;;;;;;;17.23;11.05;;;;;;;;;;4977978;28;20038;-75
2023/10/19 05:17:27;;;;;;;17.77;10.70;;;;;;;;;;4975651;28;20281;-73
2023/10/19 05:19:52;;;;;;;15.38;10.65;;;;;;;;;;4975218;28;20080;-71
2023/10/19 05:22:18;;;;;;;15.88;10.10;;;;;;;;;;4976843;28;20042;-73
2023/10/19 05:24:44;;;;;;;18.65;10.55;;;;;;;;;;4978052;28;20047;-73
2023/10/19 05:27:09;;;;;;;18.60;10.85;;;;;;;;;;4977553;28;20057;-74
2023/10/19 05:29:35;;;;;;;17.55;9.98;;;;;;;;;;4975983;28;20046;-76
2023/10/19 05:32:02;;;;;;;18.73;10.93;;;;;;;;;;4978583;28;20555;-73
2023/10/19 05:34:29;;;;;;;15.23;10.75;;;;;;;;;;4975683;28;20093;-74
2023/10/19 05:36:58;;;;;;;21.15;11.05;;;;;;;;;;4966051;28;20137;-72
2023/10/19 05:39:27;;;;;;;16.98;9.82;;;;;;;;;;4976774;28;20042;-76
2023/10/19 05:41:53;;;;;;;14.52;9.77;;;;;;;;;;4978522;28;20042;-72
2023/10/19 05:44:19;;;;;;;14.77;9.90;;;;;;;;;;4977875;28;20133;-72
2023/10/19 05:46:46;;;;;;;16.50;9.63;;;;;;;;;;4978378;28;20064;-73
2023/10/19 05:49:12;;;;;;;13.25;9.25;;;;;;;;;;4978182;28;20050;-76
2023/10/19 05:51:37;;;;;;;13.80;8.90;;;;;;;;;;4975744;28;20128;-72
2023/10/19 05:54:04;;;;;;;14.75;10.07;;;;;;;;;;4978596;28;20046;-73
2023/10/19 05:56:30;;;;;;;13.93;9.43;;;;;;;;;;4975143;28;20050;-73
2023/10/19 05:58:56;;;;;;;17.23;10.48;;;;;;;;;;4977816;28;20570;-72
2023/10/19 06:01:23;;;;;;;13.32;9.77;;;;;;;;;;4977743;28;20046;-74
2023/10/19 06:03:48;;;;;;;16.33;11.07;;;;;;;;;;4978833;28;20201;-74
2023/10/19 06:06:14;;;;;;;18.23;11.98;;;;;;;;;;4982016;28;20108;-76
2023/10/19 06:08:42;;;;;;;16.52;11.57;;;;;;;;;;4980987;28;20054;-73
2023/10/19 06:11:07;;;;;;;17.92;11.02;;;;;;;;;;4980818;28;20737;-75
2023/10/19 06:13:33;;;;;;;18.08;11.50;;;;;;;;;;4980873;28;20061;-72
2023/10/19 06:15:58;;;;;;;20.77;11.35;;;;;;;;;;4981541;28;20042;-73
2023/10/19 06:18:24;;;;;;;16.30;10.40;;;;;;;;;;4980688;28;20136;-73
2023/10/19 06:20:51;;;;;;;12.68;9.05;;;;;;;;;;4981454;28;20050;-73
2023/10/19 06:23:17;;;;;;;19.58;8.93;;;;;;;;;;4981180;28;20450;-74
2023/10/19 06:25:43;;;;;;;14.35;9.23;;;;;;;;;;4981622;28;20058;-72
2023/10/19 06:28:11;;;;;;;11.45;7.72;;;;;;;;;;4981788;28;20043;-72
2023/10/19 06:30:36;;;;;;;17.55;9.52;;;;;;;;;;4980711;28;20050;-73
2023/10/19 06:33:02;;;;;;;14.75;10.32;;;;;;;;;;4981542;28;20927;-73
2023/10/19 06:35:33;;;;;;;19.55;11.13;;;;;;;;;;4981400;28;20057;-72
2023/10/19 06:37:59;;;;;;;13.93;9.77;;;;;;;;;;4981755;28;20109;-74
2023/10/19 06:40:26;;;;;;;15.80;9.57;;;;;;;;;;4979662;28;20054;-72
2023/10/19 06:42:55;;;;;;;14.52;9.60;;;;;;;;;;4974939;28;20088;-73
2023/10/19 06:45:21;;;;;;;15.95;10.65;;;;;;;;;;4977408;28;20112;-74
2023/10/19 06:47:48;;;;;;;16.23;10.10;;;;;;;;;;4980617;28;20499;-71
2023/10/19 06:50:16;;;;;;;16.92;10.13;;;;;;;;;;4980333;28;20068;-74
2023/10/19 06:52:43;;;;;;;15.00;10.48;;;;;;;;;;4979952;28;20129;-75
2023/10/19 06:55:13;;;;;;;19.55;10.27;;;;;;;;;;4981753;28;20042;-72
2023/10/19 06:57:43;;;;;;;18.80;10.00;;;;;;;;;;4980012;28;20061;-70
2023/10/19 07:00:26;;;;;;;14.15;9.90;;;;;;;;;;4980453;28;20559;-72
2023/10/19 07:02:53;;;;;;;16.08;10.32;;;;;;;;;;4977716;28;20125;-78
2023/10/19 07:05:23;;;;;;;17.17;10.07;;;;;;;;;;4996071;28;20046;-74
2023/10/19 07:07:51;;;;;;;16.50;11.20;;;;;;;;;;4962437;28;20050;-73
2023/10/19 07:10:18;;;;;;;17.85;10.30;;;;;;;;;;4982061;28;20050;-75
2023/10/19 07:12:46;;;;;;;18.85;10.30;;;;;;;;;;4963217;28;20050;-75
2023/10/19 07:15:15;;;;;;;18.17;10.65;;;;;;;;;;4979446;28;20668;-75
2023/10/19 07:17:41;;;;;;;18.10;10.00;;;;;;;;;;4978856;28;20057;-77
2023/10/19 07:20:09;;;;;;;17.67;10.15;;;;;;;;;;4980564;28;20038;-79
2023/10/19 07:22:38;;;;;;;14.80;9.25;;;;;;;;;;4981962;28;20527;-79
2023/10/19 07:25:06;;;;;;;12.98;9.55;;;;;;;;;;4976025;28;20038;-76
2023/10/19 07:27:33;;;;;;;12.35;8.48;;;;;;;;;;4981509;28;20049;-73
2023/10/19 07:29:59;;;;;;;14.57;9.43;;;;;;;;;;4981138;28;20539;-75
2023/10/19 07:32:24;;;;;;;14.20;9.80;;;;;;;;;;4978716;28;20053;-72
2023/10/19 07:34:50;;;;;;;12.32;8.95;;;;;;;;;;4980239;28;20123;-74
2023/10/19 07:37:15;;;;;;;12.40;8.73;;;;;;;;;;4980280;28;20077;-73
2023/10/19 07:39:56;;;;;;;12.73;8.52;;;;;;;;;;4979939;28;20480;-73
2023/10/19 07:42:21;;;;;;;11.63;8.00;;;;;;;;;;4978780;28;20038;-75
2023/10/19 07:44:47;;;;;;;10.13;7.35;;;;;;;;;;4978494;28;20073;-73
2023/10/19 07:47:13;;;;;;;11.90;7.80;;;;;;;;;;4995049;28;20046;-75
2023/10/19 07:49:38;;;;;;;12.18;8.10;;;;;;;;;;4979478;28;20081;-76
2023/10/19 07:52:06;;;;;;;14.30;8.30;;;;;;;;;;4979798;28;20065;-77
2023/10/19 07:54:33;;;;;;;12.50;8.40;;;;;;;;;;4978261;28;20426;-74
2023/10/19 07:57:03;;;;;;;11.90;8.55;;;;;;;;;;4979887;28;20046;-71
2023/10/19 07:59:29;;;;;;;10.77;8.55;;;;;;;;;;4979599;28;20054;-72
2023/10/19 08:01:54;;;;;;;15.30;9.30;;;;;;;;;;4979705;28;20038;-74
2023/10/19 08:04:19;;;;;;;12.00;8.50;;;;;;;;;;4977755;28;20065;-75
2023/10/19 08:06:45;;;;;;;11.23;7.95;;;;;;;;;;4980108;28;20471;-71
2023/10/19 08:09:11;;;;;;;11.20;7.65;;;;;;;;;;4979325;28;20073;-72
2023/10/19 08:11:36;;;;;;;14.65;7.70;;;;;;;;;;4978861;28;20582;-74
2023/10/19 08:14:02;;;;;;;10.00;7.60;;;;;;;;;;4978519;28;20042;-73
2023/10/19 08:16:27;;;;;;;10.35;8.25;;;;;;;;;;4978488;28;20046;-77
2023/10/19 08:18:53;;;;;;;9.25;7.40;;;;;;;;;;4979161;28;20132;-73
2023/10/19 08:21:18;;;;;;;10.70;6.80;;;;;;;;;;4995284;28;20570;-79
2023/10/19 08:23:45;;;;;;;8.35;6.93;;;;;;;;;;4994380;28;20038;-72
2023/10/19 08:26:10;;;;;;;10.07;6.55;;;;;;;;;;4993238;28;20180;-74
2023/10/19 08:28:36;;;;;;;9.52;7.05;;;;;;;;;;4977324;28;20054;-71
2023/10/19 08:31:02;;;;;;;13.23;6.68;;;;;;;;;;4977329;28;20049;-72
2023/10/19 08:33:29;;;;;;;9.30;6.80;;;;;;;;;;4979065;28;20062;-71
2023/10/19 08:35:59;;;;;;;9.90;6.85;;;;;;;;;;4978165;28;20054;-72
2023/10/19 08:38:25;;;;;;;10.02;6.47;;;;;;;;;;4978175;28;20411;-71
2023/10/19 08:40:51;;;;;;;10.75;6.90;;;;;;;;;;4977604;28;20053;-72
2023/10/19 08:43:21;;;;;;;8.40;6.28;;;;;;;;;;4977992;28;20054;-72
2023/10/19 08:45:47;;;;;;;6.93;4.97;;;;;;;;;;4978255;28;20065;-76
2023/10/19 08:48:13;;;;;;;7.80;5.93;;;;;;;;;;4969552;28;20042;-74
2023/10/19 08:50:40;;;;;;;8.02;6.18;;;;;;;;;;4977722;28;20492;-74
2023/10/19 08:53:08;;;;;;;8.13;5.82;;;;;;;;;;4979239;28;20081;-73
2023/10/19 08:55:36;;;;;;;9.50;5.43;;;;;;;;;;4977688;28;20070;-74
2023/10/19 08:58:05;;;;;;;7.90;5.38;;;;;;;;;;4975965;28;20052;-75
2023/10/19 09:00:53;;;;;;;8.13;5.18;;;;;;;;;;4988140;28;20077;-76
2023/10/19 09:03:19;;;;;;;11.15;6.10;;;;;;;;;;4978806;28;20050;-74
2023/10/19 09:05:46;;;;;;;8.80;6.30;;;;;;;;;;4977515;28;20101;-74
2023/10/19 09:08:19;;;;;;;7.53;5.55;;;;;;;;;;4978583;28;20085;-78
2023/10/19 09:10:46;;;;;;;7.22;5.53;;;;;;;;;;4976757;28;20128;-73
2023/10/19 09:13:12;;;;;;;8.10;5.90;;;;;;;;;;4978457;28;20066;-75
2023/10/19 09:15:39;;;;;;;7.82;5.72;;;;;;;;;;4978824;28;20061;-71
2023/10/19 09:18:16;;;;;;;8.68;6.50;;;;;;;;;;4977936;28;20050;-72
2023/10/19 09:20:52;;;;;;;11.23;6.75;;;;;;;;;;4977089;28;20057;-74
2023/10/19 09:23:22;;;;;;;12.05;7.95;;;;;;;;;;4978995;28;20140;-74
2023/10/19 09:25:49;;;;;;;10.27;7.15;;;;;;;;;;4978787;28;20046;-73
2023/10/19 09:28:15;;;;;;;10.32;7.35;;;;;;;;;;4978336;28;20046;-70
2023/10/19 09:30:42;;;;;;;9.45;7.30;;;;;;;;;;4976827;28;20133;-73
2023/10/19 09:33:09;;;;;;;10.25;7.93;;;;;;;;;;4977752;28;20054;-73
2023/10/19 09:35:37;;;;;;;13.23;7.75;;;;;;;;;;4977259;28;20043;-72
2023/10/19 09:38:05;;;;;;;10.90;7.40;;;;;;;;;;4979099;28;20046;-73
2023/10/19 09:40:30;;;;;;;8.73;6.93;;;;;;;;;;4981278;28;20046;-73
2023/10/19 09:42:58;;;;;;;11.38;7.40;;;;;;;;;;4981588;28;20513;-73
2023/10/19 09:45:30;;;;;;;12.07;7.32;;;;;;;;;;4964949;28;20139;-72
2023/10/19 09:47:56;;;;;;;11.20;8.05;;;;;;;;;;4980474;28;20061;-72
2023/10/19 09:50:22;;;;;;;10.10;7.50;;;;;;;;;;4981013;28;20521;-72
2023/10/19 09:52:49;;;;;;;9.65;7.40;;;;;;;;;;4981584;28;20050;-73
2023/10/19 09:55:15;;;;;;;14.68;7.15;;;;;;;;;;4982133;28;20042;-72
2023/10/19 09:57:59;;;;;;;8.57;6.90;;;;;;;;;;4982137;28;20169;-73
2023/10/19 10:00:25;;;;;;;10.82;7.18;;;;;;;;;;4980902;28;20065;-72
2023/10/19 10:02:51;;;;;;;12.45;7.50;;;;;;;;;;4981680;28;20054;-73
2023/10/19 10:05:41;;;;;;;9.40;7.43;;;;;;;;;;4974108;28;20058;-70
2023/10/19 10:08:22;;;;;;;9.80;7.63;;;;;;;;;;4981324;28;20049;-72
2023/10/19 10:10:49;;;;;;;10.13;7.60;;;;;;;;;;4980067;28;20050;-73
2023/10/19 10:13:24;;;;;;;11.57;8.90;;;;;;;;;;4981091;28;20105;-73
2023/10/19 10:15:54;;;;;;;10.73;9.00;;;;;;;;;;4980247;28;20058;-73
2023/10/19 10:18:20;;;;;;;12.05;9.27;;;;;;;;;;4981416;28;20043;-77
2023/10/19 10:20:47;;;;;;;12.32;9.07;;;;;;;;;;4979632;28;20518;-75
2023/10/19 10:23:19;;;;;;;15.63;10.48;;;;;;;;;;4980320;28;20046;-76
2023/10/19 10:25:48;;;;;;;10.50;8.70;;;;;;;;;;4980556;28;20081;-72
2023/10/19 10:28:15;;;;;;;11.15;8.77;;;;;;;;;;4977227;28;20060;-74
2023/10/19 10:31:15;;;;;;;9.93;8.20;;;;;;;;;;4978845;28;20060;-73
2023/10/19 10:33:45;;;;;;;10.95;7.93;;;;;;;;;;4979653;28;20054;-76
2023/10/19 10:36:12;;;;;;;11.10;7.93;;;;;;;;;;4985684;28;20109;-74
2023/10/19 10:38:38;;;;;;;9.55;7.47;;;;;;;;;;4978776;28;20116;-74
2023/10/19 10:41:04;;;;;;;12.00;8.20;;;;;;;;;;4978255;28;20053;-79
2023/10/19 10:43:30;;;;;;;9.82;7.18;;;;;;;;;;4977977;28;20057;-72
2023/10/19 10:46:23;;;;;;;9.45;7.72;;;;;;;;;;4979684;28;20050;-73
2023/10/19 10:48:49;;;;;;;13.45;8.45;;;;;;;;;;4963713;28;20050;-74
2023/10/19 10:51:15;;;;;;;11.98;7.55;;;;;;;;;;4979323;28;20046;-77
2023/10/19 10:53:41;;;;;;;9.80;6.63;;;;;;;;;;4994493;28;20050;-76
2023/10/19 10:56:06;;;;;;;12.00;6.30;;;;;;;;;;4978964;28;20056;-73
2023/10/19 10:58:32;;;;;;;6.78;5.53;;;;;;;;;;4977424;28;20049;-71
2023/10/19 11:00:57;;;;;;;8.90;5.05;;;;;;;;;;4979016;28;20137;-74
2023/10/19 11:03:24;;;;;;;13.18;5.15;;;;;;;;;;4978743;28;20050;-74
2023/10/19 11:05:49;;;;;;;10.43;4.88;;;;;;;;;;4979558;28;20050;-70
2023/10/19 11:08:21;;;;;;;7.57;4.80;;;;;;;;;;4978450;28;20126;-73
2023/10/19 11:10:47;;;;;;;6.05;4.68;;;;;;;;;;4961670;28;20054;-71
2023/10/19 11:13:21;;;;;;;5.95;4.13;;;;;;;;;;4978575;28;20050;-73
2023/10/19 11:15:53;;;;;;;8.18;4.10;;;;;;;;;;4978797;28;20057;-73
2023/10/19 11:18:32;;;;;;;5.88;4.47;;;;;;;;;;4979303;28;20204;-73
2023/10/19 11:20:59;;;;;;;7.45;4.28;;;;;;;;;;4953498;28;20112;-78
2023/10/19 11:23:52;;;;;;;7.78;4.68;;;;;;;;;;4980733;28;20069;-73
2023/10/19 11:26:24;;;;;;;5.80;4.65;;;;;;;;;;4979832;28;20086;-76
2023/10/19 11:29:05;;;;;;;10.68;4.60;;;;;;;;;;4962563;28;20042;-74
2023/10/19 11:31:41;;;;;;;5.55;4.43;;;;;;;;;;4979577;28;20693;-74
2023/10/19 11:34:08;;;;;;;7.53;4.63;;;;;;;;;;4980309;28;20054;-74
2023/10/19 11:36:34;;;;;;;6.20;4.60;;;;;;;;;;4978978;28;20046;-73
2023/10/19 11:39:00;;;;;;;7.80;5.10;;;;;;;;;;4979163;28;20046;-75
2023/10/19 11:41:25;;;;;;;6.78;5.05;;;;;;;;;;4980165;28;20534;-78
2023/10/19 11:43:50;;;;;;;9.00;4.90;;;;;;;;;;4976159;28;20930;-75
2023/10/19 11:46:25;;;;;;;7.65;4.75;;;;;;;;;;4977162;28;20057;-73
2023/10/19 11:48:50;;;;;;;8.68;5.03;;;;;;;;;;4977806;28;20136;-75
2023/10/19 11:51:16;;;;;;;7.07;4.72;;;;;;;;;;4976848;28;20443;-72
2023/10/19 11:53:42;;;;;;;6.68;4.75;;;;;;;;;;4976793;28;20046;-74
2023/10/19 11:56:12;;;;;;;6.90;4.97;;;;;;;;;;4977752;28;20749;-73
2023/10/19 11:58:39;;;;;;;6.47;4.78;;;;;;;;;;4977040;28;20141;-74
2023/10/19 12:01:08;;;;;;;7.90;4.70;;;;;;;;;;4976654;28;20541;-74
2023/10/19 12:03:39;;;;;;;5.45;4.28;;;;;;;;;;4976928;28;20522;-76
2023/10/19 12:06:06;;;;;;;6.45;5.43;;;;;;;;;;4976454;28;20056;-75
2023/10/19 12:08:39;;;;;;;6.88;5.07;;;;;;;;;;4975358;28;20111;-76
2023/10/19 12:11:14;;;;;;;5.88;5.00;;;;;;;;;;4975717;28;20065;-72
2023/10/19 12:13:43;;;;;;;5.40;3.67;;;;;;;;;;4977665;28;20066;-73
2023/10/19 12:16:19;;;;;;;5.72;4.40;;;;;;;;;;4975835;28;20050;-73
2023/10/19 12:18:46;;;;;;;7.38;4.70;;;;;;;;;;4976953;28;20065;-72
2023/10/19 12:21:11;;;;;;;7.82;4.45;;;;;;;;;;4976116;28;20042;-73
2023/10/19 12:23:44;;;;;;;7.30;4.25;;;;;;;;;;4977781;28;20113;-73
2023/10/19 12:26:12;;;;;;;4.47;3.60;;;;;;;;;;4976796;28;20057;-74
2023/10/19 12:28:38;;;;;;;6.35;3.53;;;;;;;;;;4975504;28;20069;-73
2023/10/19 12:31:13;;;;;;;5.50;3.60;;;;;;;;;;4976816;28;20050;-72
2023/10/19 12:33:39;;;;;;;8.52;4.18;;;;;;;;;;4977949;28;20054;-72
2023/10/19 12:38:49;;;;;;;7.95;3.55;;;;;;;;;;4959750;28;20054;-72
2023/10/19 12:41:15;;;;;;;4.53;3.58;;;;;;;;;;4976498;28;20050;-74
2023/10/19 12:43:41;;;;;;;6.85;3.40;;;;;;;;;;4976023;28;20053;-73
2023/10/19 12:46:08;;;;;;;5.72;3.53;;;;;;;;;;4977004;28;20061;-73
2023/10/19 12:48:34;;;;;;;5.50;3.42;;;;;;;;;;4975621;28;20050;-74
2023/10/19 12:51:04;;;;;;;6.35;3.80;;;;;;;;;;4975010;28;20089;-74
2023/10/19 12:53:29;;;;;;;5.68;3.80;;;;;;;;;;4974926;28;20150;-74
2023/10/19 12:55:55;;;;;;;8.10;2.92;;;;;;;;;;4977091;28;20125;-72
2023/10/19 12:58:20;;;;;;;4.38;3.17;;;;;;;;;;4975403;28;20443;-72
2023/10/19 13:00:49;;;;;;;6.03;3.97;;;;;;;;;;4976373;28;20665;-73
2023/10/19 13:03:16;;;;;;;5.88;3.53;;;;;;;;;;4976034;28;20053;-73
2023/10/19 13:05:44;;;;;;;5.18;3.63;;;;;;;;;;4976611;28;20086;-73
2023/10/19 13:08:14;;;;;;;4.60;3.70;;;;;;;;;;4976562;28;20042;-72
2023/10/19 13:10:44;;;;;;;6.93;4.25;;;;;;;;;;4959106;28;20104;-73
2023/10/19 13:13:14;;;;;;;9.77;4.38;;;;;;;;;;4980634;28;20539;-72
2023/10/19 13:15:42;;;;;;;7.25;4.35;;;;;;;;;;4981366;28;20042;-72
2023/10/19 13:18:09;;;;;;;8.27;4.78;;;;;;;;;;4979558;28;20074;-72
2023/10/19 13:20:39;;;;;;;7.15;5.03;;;;;;;;;;4979933;28;20088;-73
2023/10/19 13:23:21;;;;;;;4.97;4.15;;;;;;;;;;4979836;28;20050;-75
2023/10/19 13:25:49;;;;;;;;;;;;;;;;;;4980591;28;20054;-75
2023/10/19 13:28:17;;;;;;;6.65;3.88;;;;;;;;;;4979935;28;19926;-74
2023/10/19 13:30:47;;;;;;;5.55;3.88;;;;;;;;;;4980144;28;20070;-73
2023/10/19 13:33:13;;;;;;;9.18;3.65;;;;;;;;;;4979674;28;20062;-73
2023/10/19 13:35:40;;;;;;;5.25;3.75;;;;;;;;;;4981001;28;20043;-71
2023/10/19 13:38:07;;;;;;;5.30;3.60;;;;;;;;;;4981048;28;20096;-73
2023/10/19 13:40:36;;;;;;;5.82;4.25;;;;;;;;;;4979290;28;20088;-72
2023/10/19 13:43:04;;;;;;;5.00;3.92;;;;;;;;;;4981535;28;20427;-72
2023/10/19 13:45:35;;;;;;;4.88;3.85;;;;;;;;;;4979941;28;20060;-72
2023/10/19 13:48:04;;;;;;;7.70;3.80;;;;;;;;;;4980671;28;20057;-72
2023/10/19 13:50:30;;;;;;;4.40;3.47;;;;;;;;;;4979485;28;20132;-72
2023/10/19 13:52:57;;;;;;;6.85;3.50;;;;;;;;;;4981099;28;20078;-72
2023/10/19 13:55:23;;;;;;;5.88;4.30;;;;;;;;;;4981178;28;20057;-73
2023/10/19 13:57:49;;;;;;;6.63;4.68;;;;;;;;;;4981234;28;20046;-72
2023/10/19 14:00:23;;;;;;;5.28;3.97;;;;;;;;;;4980019;28;20209;-74
2023/10/19 14:02:49;;;;;;;6.85;4.18;;;;;;;;;;4981528;28;20047;-73
2023/10/19 14:05:15;;;;;;;10.27;4.90;;;;;;;;;;4980863;28;20068;-77
2023/10/19 14:07:40;;;;;;;6.00;4.15;;;;;;;;;;4979902;28;20065;-73
2023/10/19 14:10:08;;;;;;;5.70;4.05;;;;;;;;;;4986356;28;20084;-76
2023/10/19 14:12:33;;;;;;;4.72;3.67;;;;;;;;;;4977882;28;20042;-74
2023/10/19 14:14:59;;;;;;;6.18;4.30;;;;;;;;;;4982123;28;20051;-72
2023/10/19 14:17:25;;;;;;;6.60;3.63;;;;;;;;;;4978777;28;20050;-75
2023/10/19 14:19:51;;;;;;;5.95;3.45;;;;;;;;;;4979855;28;20193;-75
2023/10/19 14:22:17;;;;;;;7.43;3.95;;;;;;;;;;4978900;28;20163;-73
2023/10/19 14:24:43;;;;;;;6.68;4.22;;;;;;;;;;4979135;28;20061;-72
2023/10/19 14:27:08;;;;;;;10.75;4.93;;;;;;;;;;4979083;28;20046;-71
2023/10/19 14:29:34;;;;;;;6.30;4.10;;;;;;;;;;4979664;28;20052;-74
2023/10/19 14:32:00;;;;;;;6.30;4.20;;;;;;;;;;4977729;28;20549;-72
2023/10/19 14:34:26;;;;;;;5.38;3.88;;;;;;;;;;4978674;28;20393;-72
2023/10/19 14:36:52;;;;;;;5.97;3.67;;;;;;;;;;4980082;28;20050;-74
2023/10/19 14:39:20;;;;;;;5.55;3.72;;;;;;;;;;4979564;28;20116;-74
2023/10/19 14:41:46;;;;;;;6.85;5.18;;;;;;;;;;4981078;28;20042;-72
2023/10/19 14:44:11;;;;;;;5.68;3.97;;;;;;;;;;4980055;28;20049;-72
2023/10/19 14:46:36;;;;;;;5.43;3.92;;;;;;;;;;4979281;28;20042;-72
2023/10/19 14:49:02;;;;;;;5.95;4.40;;;;;;;;;;4979967;28;20678;-71
2023/10/19 14:51:27;;;;;;;4.60;3.95;;;;;;;;;;4978657;28;20042;-73
2023/10/19 14:53:53;;;;;;;5.90;3.70;;;;;;;;;;4979208;28;20038;-73